Wetterdaten: Woche 27.04.15 - 03.05.15 (KW18)
Datum Zeit Temp. Aussen +5cm Feuchte Auss Luftdruck Regen Sonnenschein Regendauer Solar Windben
27.04.2015 00:00 12,0 C 10,5 C 94 % 1003,9 hPa 3,4 l/m 0,00 h 0,97 h 0 W/m 17,0 km/h (3 Bft)
27.04.2015 01:00 11,2 C 10,0 C 96 % 1003,6 hPa 4,0 l/m 0,00 h 1,00 h 0 W/m 14,5 km/h (3 Bft)
27.04.2015 02:00 10,7 C 9,7 C 97 % 1003,3 hPa 1,6 l/m 0,00 h 1,00 h 0 W/m 15,5 km/h (3 Bft)
27.04.2015 03:00 10,1 C 9,2 C 97 % 1003,1 hPa 1,0 l/m 0,00 h 1,00 h 0 W/m 18,2 km/h (3 Bft)
27.04.2015 04:00 9,3 C 8,6 C 97 % 1003,2 hPa 0,2 l/m 0,00 h 0,95 h 0 W/m 21,4 km/h (4 Bft)
27.04.2015 05:00 8,6 C 8,1 C 97 % 1003,6 hPa 0,2 l/m 0,00 h 1,00 h 0 W/m 21,1 km/h (4 Bft)
27.04.2015 06:00 7,9 C 7,6 C 97 % 1004,0 hPa 0,2 l/m 0,00 h 0,87 h 8 W/m 21,9 km/h (4 Bft)
27.04.2015 07:00 7,3 C 7,1 C 97 % 1004,8 hPa 0,2 l/m 0,00 h 1,00 h 18 W/m 22,3 km/h (4 Bft)
27.04.2015 08:00 7,1 C 6,8 C 97 % 1005,3 hPa 0,0 l/m 0,00 h 0,60 h 56 W/m 24,5 km/h (4 Bft)
27.04.2015 09:00 7,3 C 7,2 C 97 % 1005,8 hPa 0,0 l/m 0,00 h 0,00 h 128 W/m 22,6 km/h (4 Bft)
27.04.2015 10:00 8,2 C 8,2 C 93 % 1006,4 hPa 0,0 l/m 0,00 h 0,00 h 231 W/m 26,2 km/h (4 Bft)
27.04.2015 11:00 9,1 C 8,6 C 85 % 1007,0 hPa 0,0 l/m 0,03 h 0,00 h 248 W/m 28,4 km/h (4 Bft)
27.04.2015 12:00 9,5 C 8,8 C 80 % 1007,3 hPa 0,0 l/m 0,00 h 0,00 h 222 W/m 27,3 km/h (4 Bft)
27.04.2015 13:00 10,0 C 9,0 C 76 % 1007,4 hPa 0,0 l/m 0,00 h 0,00 h 188 W/m 25,1 km/h (4 Bft)
27.04.2015 14:00 10,2 C 9,2 C 74 % 1007,8 hPa 0,0 l/m 0,00 h 0,00 h 213 W/m 24,9 km/h (4 Bft)
27.04.2015 15:00 10,5 C 9,5 C 71 % 1007,7 hPa 0,0 l/m 0,00 h 0,00 h 216 W/m 21,3 km/h (4 Bft)
27.04.2015 16:00 11,6 C 10,6 C 66 % 1007,5 hPa 0,0 l/m 0,23 h 0,00 h 290 W/m 18,9 km/h (3 Bft)
27.04.2015 17:00 11,8 C 10,3 C 62 % 1007,5 hPa 0,0 l/m 0,00 h 0,00 h 197 W/m 17,8 km/h (3 Bft)
27.04.2015 18:00 11,5 C 9,5 C 60 % 1007,6 hPa 0,0 l/m 0,00 h 0,00 h 133 W/m 21,8 km/h (4 Bft)
27.04.2015 19:00 11,2 C 9,1 C 62 % 1007,7 hPa 0,0 l/m 0,00 h 0,00 h 75 W/m 13,0 km/h (3 Bft)
27.04.2015 20:00 10,6 C 8,2 C 69 % 1008,2 hPa 0,0 l/m 0,37 h 0,00 h 26 W/m 7,1 km/h (2 Bft)
27.04.2015 21:00 9,5 C 7,5 C 71 % 1009,0 hPa 0,0 l/m 0,00 h 0,00 h 4 W/m 8,5 km/h (2 Bft)
27.04.2015 22:00 8,5 C 6,9 C 72 % 1009,5 hPa 0,0 l/m 0,00 h 0,00 h 0 W/m 14,3 km/h (3 Bft)
27.04.2015 23:00 7,4 C 6,0 C 72 % 1009,9 hPa 0,0 l/m 0,00 h 0,00 h 0 W/m 12,6 km/h (3 Bft)
28.04.2015 00:00 6,4 C 5,3 C 74 % 1010,4 hPa 0,0 l/m 0,00 h 0,00 h 0 W/m 16,0 km/h (3 Bft)
28.04.2015 01:00 5,4 C 4,7 C 77 % 1011,0 hPa 0,0 l/m 0,00 h 0,00 h 0 W/m 8,5 km/h (2 Bft)
28.04.2015 02:00 4,4 C 4,1 C 80 % 1011,2 hPa 0,0 l/m 0,00 h 0,00 h 0 W/m 5,6 km/h (1 Bft)
28.04.2015 03:00 3,4 C 3,4 C 83 % 1011,2 hPa 0,0 l/m 0,00 h 0,00 h 0 W/m 3,8 km/h (1 Bft)
28.04.2015 04:00 2,5 C 2,9 C 85 % 1011,6 hPa 0,0 l/m 0,00 h 0,00 h 0 W/m 2,8 km/h (1 Bft)
28.04.2015 05:00 1,8 C 2,6 C 86 % 1011,9 hPa 0,0 l/m 0,00 h 0,00 h 0 W/m 2,8 km/h (1 Bft)
28.04.2015 06:00 1,2 C 2,2 C 87 % 1012,3 hPa 0,0 l/m 0,00 h 0,00 h 13 W/m 2,2 km/h (1 Bft)
28.04.2015 07:00 1,0 C 2,5 C 89 % 1013,2 hPa 0,0 l/m 0,83 h 0,00 h 131 W/m 5,7 km/h (1 Bft)
28.04.2015 08:00 2,3 C 3,6 C 93 % 1013,8 hPa 0,0 l/m 0,97 h 0,00 h 248 W/m 6,6 km/h (2 Bft)
28.04.2015 09:00 5,9 C 5,3 C 88 % 1014,0 hPa 0,0 l/m 1,00 h 0,00 h 471 W/m 13,9 km/h (3 Bft)
28.04.2015 10:00 10,4 C 8,1 C 70 % 1014,5 hPa 0,0 l/m 1,00 h 0,00 h 645 W/m 20,6 km/h (4 Bft)
28.04.2015 11:00 12,4 C 9,8 C 67 % 1014,8 hPa 0,0 l/m 0,80 h 0,00 h 623 W/m 22,7 km/h (4 Bft)
28.04.2015 12:00 12,1 C 10,0 C 65 % 1015,0 hPa 0,0 l/m 0,50 h 0,00 h 507 W/m 28,1 km/h (4 Bft)
28.04.2015 13:00 12,4 C 10,3 C 62 % 1015,7 hPa 0,0 l/m 0,47 h 0,17 h 499 W/m 29,8 km/h (5 Bft)
28.04.2015 14:00 12,1 C 10,7 C 64 % 1016,4 hPa 0,0 l/m 0,70 h 0,13 h 599 W/m 30,2 km/h (5 Bft)
28.04.2015 15:00 13,2 C 11,4 C 60 % 1016,8 hPa 0,0 l/m 0,80 h 0,07 h 589 W/m 22,7 km/h (4 Bft)
28.04.2015 16:00 13,1 C 10,6 C 51 % 1016,9 hPa 0,0 l/m 0,50 h 0,00 h 405 W/m 26,9 km/h (4 Bft)
28.04.2015 17:00 12,5 C 10,3 C 48 % 1017,6 hPa 0,0 l/m 0,57 h 0,00 h 303 W/m 22,7 km/h (4 Bft)
28.04.2015 18:00 12,2 C 9,5 C 47 % 1018,2 hPa 0,0 l/m 0,97 h 0,00 h 300 W/m 24,6 km/h (4 Bft)
28.04.2015 19:00 11,2 C 8,3 C 47 % 1018,6 hPa 0,0 l/m 0,57 h 0,00 h 104 W/m 24,8 km/h (4 Bft)
28.04.2015 20:00 9,7 C 6,9 C 47 % 1019,3 hPa 0,0 l/m 0,03 h 0,00 h 19 W/m 14,7 km/h (3 Bft)
28.04.2015 21:00 7,8 C 5,1 C 55 % 1019,9 hPa 0,0 l/m 0,00 h 0,00 h 0 W/m 3,6 km/h (1 Bft)
28.04.2015 22:00 5,9 C 4,2 C 65 % 1020,3 hPa 0,0 l/m 0,00 h 0,00 h 0 W/m 2,1 km/h (1 Bft)
28.04.2015 23:00 4,5 C 3,6 C 74 % 1020,6 hPa 0,0 l/m 0,00 h 0,00 h 0 W/m 2,2 km/h (1 Bft)
29.04.2015 00:00 3,3 C 3,1 C 79 % 1020,7 hPa 0,0 l/m 0,00 h 0,00 h 0 W/m 3,4 km/h (1 Bft)
29.04.2015 01:00 2,5 C 2,8 C 83 % 1020,5 hPa 0,0 l/m 0,00 h 0,00 h 0 W/m 5,8 km/h (2 Bft)
29.04.2015 02:00 2,3 C 2,8 C 84 % 1020,1 hPa 0,0 l/m 0,00 h 0,00 h 0 W/m 5,5 km/h (1 Bft)
29.04.2015 03:00 2,3 C 2,4 C 83 % 1019,8 hPa 0,0 l/m 0,00 h 0,00 h 0 W/m 4,3 km/h (1 Bft)
29.04.2015 04:00 1,9 C 2,2 C 83 % 1019,7 hPa 0,0 l/m 0,00 h 0,00 h 0 W/m 6,7 km/h (2 Bft)
29.04.2015 05:00 1,9 C 2,2 C 84 % 1019,5 hPa 0,0 l/m 0,00 h 0,00 h 1 W/m 8,3 km/h (2 Bft)
29.04.2015 06:00 1,8 C 2,2 C 85 % 1019,3 hPa 0,0 l/m 0,57 h 0,00 h 34 W/m 10,3 km/h (2 Bft)
29.04.2015 07:00 2,1 C 2,7 C 87 % 1019,3 hPa 0,0 l/m 1,00 h 0,00 h 115 W/m 9,2 km/h (2 Bft)
29.04.2015 08:00 3,5 C 3,8 C 88 % 1019,1 hPa 0,0 l/m 1,00 h 0,00 h 306 W/m 11,2 km/h (2 Bft)
29.04.2015 09:00 7,2 C 6,1 C 79 % 1018,9 hPa 0,0 l/m 1,00 h 0,00 h 441 W/m 11,5 km/h (2 Bft)
29.04.2015 10:00 11,8 C 9,1 C 64 % 1018,6 hPa 0,0 l/m 1,00 h 0,00 h 596 W/m 17,1 km/h (3 Bft)
29.04.2015 11:00 14,3 C 11,3 C 55 % 1017,9 hPa 0,0 l/m 1,00 h 0,00 h 705 W/m 18,2 km/h (3 Bft)
29.04.2015 12:00 15,3 C 12,8 C 52 % 1017,1 hPa 0,0 l/m 0,73 h 0,00 h 578 W/m 22,1 km/h (4 Bft)
29.04.2015 13:00 16,1 C 13,6 C 46 % 1016,3 hPa 0,0 l/m 0,73 h 0,00 h 607 W/m 27,5 km/h (4 Bft)
29.04.2015 14:00 15,1 C 12,8 C 47 % 1015,9 hPa 0,0 l/m 0,37 h 0,00 h 339 W/m 24,1 km/h (4 Bft)
29.04.2015 15:00 14,6 C 12,5 C 50 % 1015,6 hPa 0,0 l/m 0,03 h 0,00 h 273 W/m 20,0 km/h (4 Bft)
29.04.2015 16:00 14,9 C 12,9 C 50 % 1015,0 hPa 0,0 l/m 0,77 h 0,00 h 376 W/m 24,3 km/h (4 Bft)
29.04.2015 17:00 15,1 C 12,5 C 50 % 1014,5 hPa 0,0 l/m 0,83 h 0,00 h 290 W/m 24,1 km/h (4 Bft)
29.04.2015 18:00 14,3 C 11,8 C 51 % 1014,2 hPa 0,0 l/m 0,23 h 0,00 h 140 W/m 20,0 km/h (4 Bft)
29.04.2015 19:00 14,0 C 11,2 C 54 % 1013,9 hPa 0,0 l/m 0,43 h 0,00 h 102 W/m 16,0 km/h (3 Bft)
29.04.2015 20:00 13,1 C 10,1 C 57 % 1013,7 hPa 0,0 l/m 0,00 h 0,00 h 18 W/m 12,6 km/h (3 Bft)
29.04.2015 21:00 12,1 C 9,1 C 61 % 1013,7 hPa 0,0 l/m 0,00 h 0,00 h 0 W/m 11,7 km/h (2 Bft)
29.04.2015 22:00 11,1 C 8,1 C 65 % 1013,5 hPa 0,0 l/m 0,00 h 0,00 h 0 W/m 10,8 km/h (2 Bft)
29.04.2015 23:00 10,1 C 7,8 C 69 % 1013,3 hPa 0,0 l/m 0,00 h 0,00 h 0 W/m 12,2 km/h (2 Bft)
30.04.2015 00:00 9,6 C 7,8 C 71 % 1013,2 hPa 0,0 l/m 0,00 h 0,00 h 0 W/m 14,2 km/h (3 Bft)
30.04.2015 01:00 9,9 C 8,0 C 72 % 1013,7 hPa 0,0 l/m 0,00 h 0,00 h 0 W/m 13,1 km/h (3 Bft)
30.04.2015 02:00 9,3 C 7,8 C 78 % 1013,6 hPa 0,0 l/m 0,00 h 0,10 h 0 W/m 6,0 km/h (2 Bft)
30.04.2015 03:00 9,0 C 7,5 C 82 % 1013,5 hPa 0,0 l/m 0,00 h 0,53 h 0 W/m 8,7 km/h (2 Bft)
30.04.2015 04:00 8,7 C 7,1 C 86 % 1013,2 hPa 0,2 l/m 0,00 h 0,87 h 0 W/m 13,4 km/h (3 Bft)
30.04.2015 05:00 8,1 C 6,7 C 91 % 1013,1 hPa 0,2 l/m 0,00 h 0,20 h 0 W/m 14,6 km/h (3 Bft)
30.04.2015 06:00 7,5 C 6,3 C 92 % 1013,2 hPa 0,0 l/m 0,23 h 0,00 h 25 W/m 11,0 km/h (2 Bft)
30.04.2015 07:00 7,4 C 6,4 C 94 % 1013,3 hPa 0,0 l/m 0,50 h 0,00 h 116 W/m 14,9 km/h (3 Bft)
30.04.2015 08:00 8,3 C 7,3 C 94 % 1013,3 hPa 0,0 l/m 0,73 h 0,00 h 226 W/m 18,5 km/h (3 Bft)
30.04.2015 09:00 9,8 C 8,6 C 86 % 1013,1 hPa 0,0 l/m 0,93 h 0,00 h 379 W/m 23,3 km/h (4 Bft)
30.04.2015 10:00 11,2 C 9,9 C 76 % 1012,9 hPa 0,0 l/m 0,80 h 0,00 h 407 W/m 23,6 km/h (4 Bft)
30.04.2015 11:00 11,7 C 10,2 C 71 % 1012,8 hPa 0,0 l/m 0,17 h 0,03 h 255 W/m 21,3 km/h (4 Bft)
30.04.2015 12:00 10,5 C 8,7 C 80 % 1012,5 hPa 0,2 l/m 0,00 h 0,70 h 133 W/m 10,7 km/h (2 Bft)
30.04.2015 13:00 10,6 C 9,3 C 84 % 1012,0 hPa 0,2 l/m 0,10 h 0,57 h 261 W/m 19,1 km/h (3 Bft)
30.04.2015 14:00 10,9 C 9,7 C 78 % 1011,3 hPa 0,0 l/m 0,17 h 0,30 h 298 W/m 20,6 km/h (4 Bft)
30.04.2015 15:00 11,6 C 10,3 C 75 % 1010,9 hPa 0,0 l/m 0,17 h 0,03 h 290 W/m 21,1 km/h (4 Bft)
30.04.2015 16:00 12,5 C 11,1 C 73 % 1010,5 hPa 0,0 l/m 0,67 h 0,00 h 496 W/m 24,1 km/h (4 Bft)
30.04.2015 17:00 13,1 C 10,8 C 70 % 1010,1 hPa 0,0 l/m 0,80 h 0,00 h 404 W/m 26,7 km/h (4 Bft)
30.04.2015 18:00 11,2 C 9,4 C 76 % 1010,3 hPa 0,0 l/m 0,03 h 0,37 h 90 W/m 27,8 km/h (4 Bft)
30.04.2015 19:00 10,0 C 8,3 C 73 % 1009,9 hPa 0,0 l/m 0,30 h 0,10 h 104 W/m 22,8 km/h (4 Bft)
30.04.2015 20:00 9,5 C 7,6 C 77 % 1010,3 hPa 0,0 l/m 0,17 h 0,00 h 24 W/m 13,6 km/h (3 Bft)
30.04.2015 21:00 8,3 C 6,8 C 82 % 1010,4 hPa 0,0 l/m 0,00 h 0,00 h 3 W/m 6,7 km/h (2 Bft)
30.04.2015 22:00 7,2 C 5,8 C 85 % 1010,5 hPa 0,0 l/m 0,00 h 0,00 h 0 W/m 4,9 km/h (1 Bft)
30.04.2015 23:00 6,3 C 5,0 C 87 % 1010,7 hPa 0,0 l/m 0,00 h 0,00 h 0 W/m 5,9 km/h (2 Bft)
01.05.2015 00:00 5,6 C 4,9 C 90 % 1010,7 hPa 0,0 l/m 0,00 h 0,00 h 0 W/m 6,4 km/h (2 Bft)
01.05.2015 01:00 5,0 C 4,4 C 91 % 1010,5 hPa 0,0 l/m 0,00 h 0,00 h 0 W/m 5,7 km/h (1 Bft)
01.05.2015 02:00 4,5 C 4,2 C 92 % 1010,0 hPa 0,0 l/m 0,00 h 0,00 h 0 W/m 5,0 km/h (1 Bft)
01.05.2015 03:00 3,9 C 3,9 C 92 % 1010,0 hPa 0,0 l/m 0,00 h 0,00 h 0 W/m 5,2 km/h (1 Bft)
01.05.2015 04:00 3,5 C 3,4 C 93 % 1009,9 hPa 0,0 l/m 0,00 h 0,00 h 0 W/m 3,5 km/h (1 Bft)
01.05.2015 05:00 3,0 C 3,1 C 93 % 1009,5 hPa 0,0 l/m 0,00 h 0,00 h 4 W/m 2,4 km/h (1 Bft)
01.05.2015 06:00 2,6 C 3,2 C 93 % 1009,4 hPa 0,0 l/m 0,67 h 0,00 h 35 W/m 2,5 km/h (1 Bft)
01.05.2015 07:00 3,3 C 4,6 C 95 % 1009,3 hPa 0,0 l/m 0,47 h 0,00 h 98 W/m 2,3 km/h (1 Bft)
01.05.2015 08:00 5,1 C 5,8 C 96 % 1009,3 hPa 0,0 l/m 0,80 h 0,00 h 226 W/m 4,7 km/h (1 Bft)
01.05.2015 09:00 7,3 C 7,0 C 90 % 1009,2 hPa 0,0 l/m 1,00 h 0,00 h 391 W/m 12,5 km/h (3 Bft)
01.05.2015 10:00 9,6 C 8,7 C 75 % 1009,1 hPa 0,0 l/m 1,00 h 0,00 h 505 W/m 9,9 km/h (2 Bft)
01.05.2015 11:00 11,8 C 10,0 C 65 % 1008,8 hPa 0,0 l/m 0,93 h 0,00 h 631 W/m 8,4 km/h (2 Bft)
01.05.2015 12:00 12,2 C 10,7 C 61 % 1008,7 hPa 0,0 l/m 0,57 h 0,00 h 473 W/m 7,2 km/h (2 Bft)
01.05.2015 13:00 14,0 C 12,5 C 56 % 1008,3 hPa 0,0 l/m 0,90 h 0,00 h 676 W/m 9,6 km/h (2 Bft)
01.05.2015 14:00 15,4 C 13,5 C 51 % 1008,0 hPa 0,0 l/m 0,93 h 0,00 h 817 W/m 11,1 km/h (2 Bft)
01.05.2015 15:00 14,8 C 13,0 C 52 % 1007,7 hPa 0,0 l/m 0,87 h 0,00 h 665 W/m 12,7 km/h (3 Bft)
01.05.2015 16:00 14,8 C 12,6 C 49 % 1007,1 hPa 0,0 l/m 0,77 h 0,00 h 444 W/m 13,7 km/h (3 Bft)
01.05.2015 17:00 14,4 C 12,4 C 49 % 1006,9 hPa 0,0 l/m 0,93 h 0,00 h 362 W/m 12,3 km/h (3 Bft)
01.05.2015 18:00 13,8 C 11,9 C 49 % 1006,7 hPa 0,0 l/m 0,93 h 0,00 h 251 W/m 16,4 km/h (3 Bft)
01.05.2015 19:00 13,1 C 10,7 C 49 % 1006,7 hPa 0,0 l/m 1,00 h 0,00 h 145 W/m 13,3 km/h (3 Bft)
01.05.2015 20:00 12,3 C 9,5 C 54 % 1007,0 hPa 0,0 l/m 0,00 h 0,00 h 23 W/m 10,3 km/h (2 Bft)
01.05.2015 21:00 10,8 C 7,9 C 60 % 1007,5 hPa 0,0 l/m 0,00 h 0,00 h 3 W/m 6,2 km/h (2 Bft)
01.05.2015 22:00 8,9 C 6,4 C 66 % 1008,0 hPa 0,0 l/m 0,00 h 0,00 h 0 W/m 5,6 km/h (1 Bft)
01.05.2015 23:00 8,3 C 6,7 C 70 % 1008,7 hPa 0,0 l/m 0,00 h 0,00 h 0 W/m 6,7 km/h (2 Bft)
02.05.2015 00:00 8,1 C 6,5 C 72 % 1009,3 hPa 0,0 l/m 0,00 h 0,00 h 0 W/m 8,1 km/h (2 Bft)
02.05.2015 01:00 7,3 C 5,8 C 75 % 1010,0 hPa 0,0 l/m 0,00 h 0,00 h 0 W/m 4,8 km/h (1 Bft)
02.05.2015 02:00 6,9 C 6,1 C 80 % 1010,1 hPa 0,0 l/m 0,00 h 0,00 h 0 W/m 5,8 km/h (2 Bft)
02.05.2015 03:00 6,8 C 5,6 C 81 % 1010,2 hPa 0,0 l/m 0,00 h 0,00 h 0 W/m 5,3 km/h (1 Bft)
02.05.2015 04:00 5,9 C 4,4 C 83 % 1010,4 hPa 0,0 l/m 0,00 h 0,00 h 0 W/m 5,0 km/h (1 Bft)
02.05.2015 05:00 4,6 C 3,5 C 85 % 1010,7 hPa 0,0 l/m 0,00 h 0,00 h 2 W/m 3,8 km/h (1 Bft)
02.05.2015 06:00 3,8 C 3,6 C 87 % 1011,3 hPa 0,0 l/m 0,57 h 0,00 h 38 W/m 3,0 km/h (1 Bft)
02.05.2015 07:00 4,7 C 4,8 C 90 % 1011,5 hPa 0,0 l/m 1,00 h 0,00 h 171 W/m 7,6 km/h (2 Bft)
02.05.2015 08:00 6,5 C 6,0 C 89 % 1011,8 hPa 0,0 l/m 1,00 h 0,00 h 327 W/m 9,4 km/h (2 Bft)
02.05.2015 09:00 9,5 C 7,9 C 80 % 1012,1 hPa 0,0 l/m 1,00 h 0,00 h 488 W/m 7,1 km/h (2 Bft)
02.05.2015 10:00 12,7 C 10,3 C 68 % 1012,1 hPa 0,0 l/m 1,00 h 0,00 h 605 W/m 7,0 km/h (2 Bft)
02.05.2015 11:00 14,8 C 12,3 C 60 % 1012,2 hPa 0,0 l/m 1,00 h 0,00 h 715 W/m 7,8 km/h (2 Bft)
02.05.2015 12:00 16,2 C 13,8 C 53 % 1012,0 hPa 0,0 l/m 0,93 h 0,00 h 575 W/m 9,1 km/h (2 Bft)
02.05.2015 13:00 16,9 C 14,9 C 49 % 1011,7 hPa 0,0 l/m 1,00 h 0,00 h 573 W/m 7,4 km/h (2 Bft)
02.05.2015 14:00 16,8 C 15,0 C 48 % 1011,5 hPa 0,0 l/m 1,00 h 0,00 h 477 W/m 10,1 km/h (2 Bft)
02.05.2015 15:00 16,5 C 14,5 C 48 % 1011,0 hPa 0,0 l/m 0,37 h 0,00 h 340 W/m 6,8 km/h (2 Bft)
02.05.2015 16:00 15,9 C 14,0 C 47 % 1010,7 hPa 0,0 l/m 0,77 h 0,00 h 422 W/m 10,9 km/h (2 Bft)
02.05.2015 17:00 16,6 C 13,8 C 47 % 1010,0 hPa 0,0 l/m 1,00 h 0,00 h 439 W/m 9,4 km/h (2 Bft)
02.05.2015 18:00 16,4 C 13,7 C 48 % 1009,7 hPa 0,0 l/m 0,07 h 0,00 h 127 W/m 10,6 km/h (2 Bft)
02.05.2015 19:00 15,3 C 12,5 C 51 % 1009,4 hPa 0,0 l/m 0,00 h 0,00 h 32 W/m 7,8 km/h (2 Bft)
02.05.2015 20:00 14,5 C 11,5 C 54 % 1009,1 hPa 0,0 l/m 0,00 h 0,00 h 10 W/m 7,6 km/h (2 Bft)
02.05.2015 21:00 13,9 C 10,7 C 57 % 1009,0 hPa 0,0 l/m 0,00 h 0,00 h 0 W/m 7,1 km/h (2 Bft)
02.05.2015 22:00 13,4 C 10,6 C 57 % 1008,7 hPa 0,0 l/m 0,00 h 0,00 h 0 W/m 10,2 km/h (2 Bft)
02.05.2015 23:00 13,1 C 10,2 C 58 % 1008,2 hPa 0,0 l/m 0,00 h 0,00 h 0 W/m 7,4 km/h (2 Bft)
03.05.2015 00:00 12,2 C 9,1 C 62 % 1007,6 hPa 0,0 l/m 0,00 h 0,00 h 0 W/m 5,7 km/h (1 Bft)
03.05.2015 01:00 11,0 C 8,3 C 68 % 1007,1 hPa 0,0 l/m 0,00 h 0,00 h 0 W/m 5,6 km/h (1 Bft)
03.05.2015 02:00 10,0 C 7,8 C 72 % 1006,5 hPa 0,0 l/m 0,00 h 0,00 h 0 W/m 2,9 km/h (1 Bft)
03.05.2015 03:00 9,3 C 7,8 C 77 % 1005,7 hPa 0,0 l/m 0,00 h 0,00 h 0 W/m 5,9 km/h (2 Bft)
03.05.2015 04:00 9,4 C 7,9 C 83 % 1005,2 hPa 0,0 l/m 0,00 h 0,00 h 0 W/m 7,4 km/h (2 Bft)
03.05.2015 05:00 9,8 C 8,6 C 85 % 1004,8 hPa 0,0 l/m 0,00 h 0,00 h 4 W/m 12,4 km/h (3 Bft)
03.05.2015 06:00 10,4 C 9,0 C 85 % 1004,6 hPa 0,0 l/m 0,00 h 0,00 h 16 W/m 14,0 km/h (3 Bft)
03.05.2015 07:00 11,2 C 10,1 C 85 % 1004,3 hPa 0,0 l/m 0,07 h 0,00 h 84 W/m 18,7 km/h (3 Bft)
03.05.2015 08:00 12,5 C 11,0 C 84 % 1003,5 hPa 0,0 l/m 0,53 h 0,00 h 199 W/m 22,9 km/h (4 Bft)
03.05.2015 09:00 14,2 C 12,8 C 81 % 1004,0 hPa 0,0 l/m 0,23 h 0,00 h 196 W/m 18,9 km/h (3 Bft)
03.05.2015 10:00 15,5 C 14,4 C 80 % 1003,0 hPa 0,0 l/m 0,67 h 0,00 h 367 W/m 25,8 km/h (4 Bft)
03.05.2015 11:00 17,2 C 16,0 C 76 % 1002,6 hPa 0,0 l/m 0,50 h 0,00 h 365 W/m 22,9 km/h (4 Bft)
03.05.2015 12:00 17,5 C 16,3 C 77 % 1002,2 hPa 0,0 l/m 0,07 h 0,00 h 258 W/m 22,5 km/h (4 Bft)
03.05.2015 13:00 17,4 C 15,8 C 79 % 1002,1 hPa 0,0 l/m 0,00 h 0,00 h 129 W/m 16,7 km/h (3 Bft)
03.05.2015 14:00 17,2 C 14,8 C 82 % 1001,9 hPa 0,0 l/m 0,00 h 0,23 h 109 W/m 17,1 km/h (3 Bft)
03.05.2015 15:00 16,3 C 13,4 C 90 % 1001,8 hPa 2,6 l/m 0,00 h 1,00 h 72 W/m 14,5 km/h (3 Bft)
03.05.2015 16:00 15,8 C 13,8 C 94 % 1001,5 hPa 1,8 l/m 0,00 h 1,00 h 91 W/m 13,3 km/h (3 Bft)
03.05.2015 17:00 15,7 C 13,5 C 96 % 1001,1 hPa 1,6 l/m 0,00 h 1,00 h 48 W/m 13,9 km/h (3 Bft)
03.05.2015 18:00 15,5 C 13,7 C 97 % 1000,9 hPa 0,4 l/m 0,03 h 0,33 h 101 W/m 16,3 km/h (3 Bft)
03.05.2015 19:00 16,0 C 14,0 C 97 % 1001,1 hPa 0,0 l/m 0,10 h 0,00 h 53 W/m 10,7 km/h (2 Bft)
03.05.2015 20:00 16,0 C 13,5 C 97 % 1001,4 hPa 1,2 l/m 0,00 h 0,30 h 9 W/m 12,6 km/h (3 Bft)
03.05.2015 21:00 14,7 C 12,6 C 96 % 1002,3 hPa 2,0 l/m 0,00 h 0,70 h 0 W/m 16,4 km/h (3 Bft)
03.05.2015 22:00 14,3 C 12,2 C 96 % 1003,2 hPa 0,0 l/m 0,00 h 0,00 h 0 W/m 14,8 km/h (3 Bft)
03.05.2015 23:00 14,2 C 12,2 C 96 % 1003,8 hPa 0,0 l/m 0,00 h 0,00 h 0 W/m 11,9 km/h (2 Bft)
Min-Datum _ 28.04.15 28.04.15 28.04.15 03.05.15 - - - - 28.04.15
_ Min-Zeit 07:14 05:32 20:04 18:16 - - - - 06:10
Minimum _ 0,8 C 2,2 C 44 % 1000,8 hPa - - - - 0,0 km/h (0 Bft)
Max-Datum _ 03.05.15 03.05.15 27.04.15 29.04.15 27.04.15 27.04.15 27.04.15 01.05.15 28.04.15
_ Max-Zeit 12:12 12:10 02:18 00:06 01:08 11:06 00:00 13:40 14:40
Maximum _ 17,6 C 17,2 C 97 % 1020,7 hPa 4,0 l/m 0,03 h 0,03 h 1062 W/m 48,1 km/h
W-NW (6 Bft)
Durchschnitt _ 10,1 C 8,7 C 74 % 1010,5 hPa #21,2 l/m #50:28 h #17:09 h 262 W/m 13,4 km/h (3 Bft)
© 2015 W. Hausmann